sensor_id;sensor_type;location;lat;lon;timestamp;pressure;altitude;pressure_sealevel;temperature;humidity
32181;BME280;19172;51.504;3.894;2022-12-11T00:00:54;101023.53;;;8.20;88.85
32181;BME280;19172;51.504;3.894;2022-12-11T00:03:22;101029.78;;;8.25;88.59
32181;BME280;19172;51.504;3.894;2022-12-11T00:05:50;101038.25;;;7.52;88.18
32181;BME280;19172;51.504;3.894;2022-12-11T00:08:18;101033.66;;;7.94;89.89
32181;BME280;19172;51.504;3.894;2022-12-11T00:10:47;101021.13;;;8.32;90.23
32181;BME280;19172;51.504;3.894;2022-12-11T00:13:16;101029.25;;;7.41;88.62
32181;BME280;19172;51.504;3.894;2022-12-11T00:15:43;101027.03;;;7.64;89.38
32181;BME280;19172;51.504;3.894;2022-12-11T00:18:12;101027.88;;;8.15;90.08
32181;BME280;19172;51.504;3.894;2022-12-11T00:20:41;101037.34;;;8.04;90.26
32181;BME280;19172;51.504;3.894;2022-12-11T00:23:10;101045.13;;;7.98;90.73
32181;BME280;19172;51.504;3.894;2022-12-11T00:25:41;101039.63;;;7.81;90.23
32181;BME280;19172;51.504;3.894;2022-12-11T00:28:13;101042.38;;;7.89;90.45
32181;BME280;19172;51.504;3.894;2022-12-11T00:30:41;101040.84;;;8.05;90.20
32181;BME280;19172;51.504;3.894;2022-12-11T00:33:11;101051.38;;;8.03;90.06
32181;BME280;19172;51.504;3.894;2022-12-11T00:35:41;101040.63;;;7.88;89.79
32181;BME280;19172;51.504;3.894;2022-12-11T00:38:18;101049.22;;;7.78;89.78
32181;BME280;19172;51.504;3.894;2022-12-11T00:40:46;101045.88;;;7.89;90.45
32181;BME280;19172;51.504;3.894;2022-12-11T00:43:14;101047.94;;;8.07;90.75
32181;BME280;19172;51.504;3.894;2022-12-11T00:45:45;101041.75;;;8.05;90.19
32181;BME280;19172;51.504;3.894;2022-12-11T00:48:13;101046.69;;;8.38;90.40
32181;BME280;19172;51.504;3.894;2022-12-11T00:50:41;101041.41;;;8.38;89.08
32181;BME280;19172;51.504;3.894;2022-12-11T00:53:09;101048.66;;;7.97;88.26
32181;BME280;19172;51.504;3.894;2022-12-11T00:55:39;101045.88;;;7.88;88.55
32181;BME280;19172;51.504;3.894;2022-12-11T00:58:08;101041.47;;;7.88;88.40
32181;BME280;19172;51.504;3.894;2022-12-11T01:00:37;101041.16;;;8.24;88.22
32181;BME280;19172;51.504;3.894;2022-12-11T01:03:04;101032.59;;;7.82;88.07
32181;BME280;19172;51.504;3.894;2022-12-11T01:05:33;101040.25;;;7.67;87.21
32181;BME280;19172;51.504;3.894;2022-12-11T01:08:02;101037.06;;;7.86;87.61
32181;BME280;19172;51.504;3.894;2022-12-11T01:10:30;101030.00;;;7.85;88.58
32181;BME280;19172;51.504;3.894;2022-12-11T01:15:30;101019.97;;;8.15;88.08
32181;BME280;19172;51.504;3.894;2022-12-11T01:17:58;101025.56;;;8.36;87.43
32181;BME280;19172;51.504;3.894;2022-12-11T01:20:27;101030.09;;;7.88;86.37
32181;BME280;19172;51.504;3.894;2022-12-11T01:22:57;101027.22;;;7.76;86.29
32181;BME280;19172;51.504;3.894;2022-12-11T01:25:26;101028.59;;;8.05;87.43
32181;BME280;19172;51.504;3.894;2022-12-11T01:27:55;101024.06;;;7.96;87.60
32181;BME280;19172;51.504;3.894;2022-12-11T01:30:24;101017.06;;;7.97;87.35
32181;BME280;19172;51.504;3.894;2022-12-11T01:32:52;101020.25;;;8.32;87.31
32181;BME280;19172;51.504;3.894;2022-12-11T01:35:20;101016.94;;;8.45;86.68
32181;BME280;19172;51.504;3.894;2022-12-11T01:37:48;101017.09;;;8.59;85.58
32181;BME280;19172;51.504;3.894;2022-12-11T01:40:18;101011.97;;;8.69;84.94
32181;BME280;19172;51.504;3.894;2022-12-11T01:42:46;101016.41;;;8.75;83.92
32181;BME280;19172;51.504;3.894;2022-12-11T01:45:22;101014.75;;;8.80;83.49
32181;BME280;19172;51.504;3.894;2022-12-11T01:48:07;101013.59;;;8.60;82.96
32181;BME280;19172;51.504;3.894;2022-12-11T01:50:41;101014.78;;;8.84;82.90
32181;BME280;19172;51.504;3.894;2022-12-11T01:53:20;101017.63;;;8.99;81.83
32181;BME280;19172;51.504;3.894;2022-12-11T01:55:53;101012.38;;;9.02;81.19
32181;BME280;19172;51.504;3.894;2022-12-11T01:58:26;101006.19;;;9.00;80.70
32181;BME280;19172;51.504;3.894;2022-12-11T02:00:57;101009.91;;;9.19;80.23
32181;BME280;19172;51.504;3.894;2022-12-11T02:03:26;101019.72;;;9.32;79.31
32181;BME280;19172;51.504;3.894;2022-12-11T02:05:58;101010.59;;;9.03;79.39
32181;BME280;19172;51.504;3.894;2022-12-11T02:08:26;101007.22;;;9.16;78.59
32181;BME280;19172;51.504;3.894;2022-12-11T02:11:09;101005.44;;;9.12;78.57
32181;BME280;19172;51.504;3.894;2022-12-11T02:16:20;100997.59;;;9.18;78.77
32181;BME280;19172;51.504;3.894;2022-12-11T02:18:59;101009.47;;;8.80;78.03
32181;BME280;19172;51.504;3.894;2022-12-11T02:21:45;101011.47;;;9.00;78.72
32181;BME280;19172;51.504;3.894;2022-12-11T02:27:40;101005.69;;;9.35;78.08
32181;BME280;19172;51.504;3.894;2022-12-11T02:30:13;100995.13;;;9.35;77.92
32181;BME280;19172;51.504;3.894;2022-12-11T02:32:46;100992.38;;;9.24;77.69
32181;BME280;19172;51.504;3.894;2022-12-11T02:35:32;100988.09;;;9.38;77.88
32181;BME280;19172;51.504;3.894;2022-12-11T02:38:25;100993.34;;;9.35;77.75
32181;BME280;19172;51.504;3.894;2022-12-11T02:40:57;100984.66;;;9.45;77.41
32181;BME280;19172;51.504;3.894;2022-12-11T02:43:30;100982.97;;;9.53;78.09
32181;BME280;19172;51.504;3.894;2022-12-11T02:46:00;100980.19;;;9.38;78.35
32181;BME280;19172;51.504;3.894;2022-12-11T02:48:31;100986.50;;;9.52;77.75
32181;BME280;19172;51.504;3.894;2022-12-11T02:51:03;100977.84;;;9.72;78.43
32181;BME280;19172;51.504;3.894;2022-12-11T02:53:36;100991.13;;;9.81;77.84
32181;BME280;19172;51.504;3.894;2022-12-11T02:56:12;100988.50;;;9.84;77.96
32181;BME280;19172;51.504;3.894;2022-12-11T02:58:47;100984.13;;;9.86;76.84
32181;BME280;19172;51.504;3.894;2022-12-11T03:01:22;100983.19;;;9.81;77.24
32181;BME280;19172;51.504;3.894;2022-12-11T03:03:50;100976.06;;;9.69;76.73
32181;BME280;19172;51.504;3.894;2022-12-11T03:06:21;100972.41;;;9.52;75.81
32181;BME280;19172;51.504;3.894;2022-12-11T03:08:51;100970.75;;;9.65;76.51
32181;BME280;19172;51.504;3.894;2022-12-11T03:11:18;100961.06;;;9.65;76.17
32181;BME280;19172;51.504;3.894;2022-12-11T03:13:46;100965.44;;;9.62;76.05
32181;BME280;19172;51.504;3.894;2022-12-11T03:16:32;100956.56;;;9.52;75.97
32181;BME280;19172;51.504;3.894;2022-12-11T03:19:34;100960.22;;;9.69;76.39
32181;BME280;19172;51.504;3.894;2022-12-11T03:25:02;100954.94;;;9.66;77.77
32181;BME280;19172;51.504;3.894;2022-12-11T03:27:53;100958.47;;;9.70;76.93
32181;BME280;19172;51.504;3.894;2022-12-11T03:30:24;100949.88;;;9.98;77.96
32181;BME280;19172;51.504;3.894;2022-12-11T03:33:04;100944.53;;;9.89;76.14
32181;BME280;19172;51.504;3.894;2022-12-11T03:35:38;100937.53;;;9.97;76.71
32181;BME280;19172;51.504;3.894;2022-12-11T03:38:36;100949.69;;;9.74;76.47
32181;BME280;19172;51.504;3.894;2022-12-11T03:41:07;100948.72;;;9.64;75.76
32181;BME280;19172;51.504;3.894;2022-12-11T03:43:39;100942.72;;;9.82;76.25
32181;BME280;19172;51.504;3.894;2022-12-11T03:46:10;100938.31;;;9.84;75.82
32181;BME280;19172;51.504;3.894;2022-12-11T03:48:43;100944.50;;;9.84;75.51
32181;BME280;19172;51.504;3.894;2022-12-11T03:51:15;100945.41;;;9.92;75.34
32181;BME280;19172;51.504;3.894;2022-12-11T03:53:45;100950.50;;;9.62;75.36
32181;BME280;19172;51.504;3.894;2022-12-11T03:56:16;100953.28;;;9.82;75.70
32181;BME280;19172;51.504;3.894;2022-12-11T03:58:44;100947.81;;;9.59;74.49
32181;BME280;19172;51.504;3.894;2022-12-11T04:01:12;100955.91;;;9.83;75.10
32181;BME280;19172;51.504;3.894;2022-12-11T04:03:40;100948.00;;;9.86;74.48
32181;BME280;19172;51.504;3.894;2022-12-11T04:06:08;100945.31;;;9.77;74.88
32181;BME280;19172;51.504;3.894;2022-12-11T04:08:35;100946.31;;;9.96;75.34
32181;BME280;19172;51.504;3.894;2022-12-11T04:11:03;100939.28;;;9.95;74.15
32181;BME280;19172;51.504;3.894;2022-12-11T04:13:50;100940.06;;;9.83;74.63
32181;BME280;19172;51.504;3.894;2022-12-11T04:16:38;100939.34;;;10.04;73.67
32181;BME280;19172;51.504;3.894;2022-12-11T04:19:06;100941.13;;;10.06;73.26
32181;BME280;19172;51.504;3.894;2022-12-11T04:21:52;100935.84;;;10.09;73.88
32181;BME280;19172;51.504;3.894;2022-12-11T04:24:39;100937.66;;;10.15;73.75
32181;BME280;19172;51.504;3.894;2022-12-11T04:27:07;100935.94;;;10.19;73.49
32181;BME280;19172;51.504;3.894;2022-12-11T04:29:34;100941.28;;;10.29;72.74
32181;BME280;19172;51.504;3.894;2022-12-11T04:32:02;100934.19;;;10.21;72.54
32181;BME280;19172;51.504;3.894;2022-12-11T04:34:30;100930.63;;;10.16;72.06
32181;BME280;19172;51.504;3.894;2022-12-11T04:36:58;100925.44;;;10.32;72.64
32181;BME280;19172;51.504;3.894;2022-12-11T04:39:25;100934.25;;;10.33;72.05
32181;BME280;19172;51.504;3.894;2022-12-11T04:41:53;100928.09;;;10.37;71.61
32181;BME280;19172;51.504;3.894;2022-12-11T04:44:21;100929.97;;;10.63;72.11
32181;BME280;19172;51.504;3.894;2022-12-11T04:46:49;100930.75;;;10.41;70.75
32181;BME280;19172;51.504;3.894;2022-12-11T04:49:17;100934.03;;;10.01;70.67
32181;BME280;19172;51.504;3.894;2022-12-11T04:51:45;100933.28;;;10.22;71.33
32181;BME280;19172;51.504;3.894;2022-12-11T04:54:12;100920.13;;;10.26;71.02
32181;BME280;19172;51.504;3.894;2022-12-11T04:56:40;100933.13;;;9.99;70.95
32181;BME280;19172;51.504;3.894;2022-12-11T04:59:08;100930.69;;;10.23;71.00
32181;BME280;19172;51.504;3.894;2022-12-11T05:01:36;100922.63;;;10.06;71.20
32181;BME280;19172;51.504;3.894;2022-12-11T05:04:04;100919.09;;;10.06;71.86
32181;BME280;19172;51.504;3.894;2022-12-11T05:06:32;100916.38;;;9.91;72.17
32181;BME280;19172;51.504;3.894;2022-12-11T05:08:59;100912.03;;;10.00;71.51
32181;BME280;19172;51.504;3.894;2022-12-11T05:11:27;100904.09;;;10.03;72.54
32181;BME280;19172;51.504;3.894;2022-12-11T05:13:55;100909.50;;;10.14;72.77
32181;BME280;19172;51.504;3.894;2022-12-11T05:16:23;100920.00;;;10.09;71.82
32181;BME280;19172;51.504;3.894;2022-12-11T05:18:51;100915.41;;;9.83;72.22
32181;BME280;19172;51.504;3.894;2022-12-11T05:21:19;100918.22;;;10.04;72.50
32181;BME280;19172;51.504;3.894;2022-12-11T05:23:47;100907.66;;;10.11;73.50
32181;BME280;19172;51.504;3.894;2022-12-11T05:26:19;100914.56;;;9.87;73.37
32181;BME280;19172;51.504;3.894;2022-12-11T05:28:51;100910.22;;;9.92;72.99
32181;BME280;19172;51.504;3.894;2022-12-11T05:31:22;100900.59;;;10.03;73.59
32181;BME280;19172;51.504;3.894;2022-12-11T05:33:51;100904.78;;;9.74;73.52
32181;BME280;19172;51.504;3.894;2022-12-11T05:36:25;100915.31;;;9.68;73.32
32181;BME280;19172;51.504;3.894;2022-12-11T05:38:54;100905.78;;;9.91;73.47
32181;BME280;19172;51.504;3.894;2022-12-11T05:41:24;100908.41;;;9.85;73.87
32181;BME280;19172;51.504;3.894;2022-12-11T05:43:52;100907.56;;;9.93;73.85
32181;BME280;19172;51.504;3.894;2022-12-11T05:46:26;100904.81;;;9.72;73.64
32181;BME280;19172;51.504;3.894;2022-12-11T05:49:00;100905.56;;;9.56;72.92
32181;BME280;19172;51.504;3.894;2022-12-11T05:51:30;100906.53;;;9.70;74.26
32181;BME280;19172;51.504;3.894;2022-12-11T05:53:58;100910.13;;;9.78;73.87
32181;BME280;19172;51.504;3.894;2022-12-11T05:56:29;100906.63;;;9.81;74.48
32181;BME280;19172;51.504;3.894;2022-12-11T05:58:59;100908.41;;;9.88;74.35
32181;BME280;19172;51.504;3.894;2022-12-11T06:01:39;100913.78;;;10.01;75.02
32181;BME280;19172;51.504;3.894;2022-12-11T06:04:09;100912.06;;;10.05;74.62
32181;BME280;19172;51.504;3.894;2022-12-11T06:06:37;100916.38;;;9.91;74.79
32181;BME280;19172;51.504;3.894;2022-12-11T06:09:06;100911.25;;;10.14;74.74
32181;BME280;19172;51.504;3.894;2022-12-11T06:11:34;100904.94;;;9.95;74.61
32181;BME280;19172;51.504;3.894;2022-12-11T06:14:03;100905.16;;;10.30;74.21
32181;BME280;19172;51.504;3.894;2022-12-11T06:16:31;100904.16;;;10.11;73.70
32181;BME280;19172;51.504;3.894;2022-12-11T06:18:59;100894.59;;;10.33;74.55
32181;BME280;19172;51.504;3.894;2022-12-11T06:21:29;100889.09;;;9.99;73.40
32181;BME280;19172;51.504;3.894;2022-12-11T06:24:00;100894.56;;;10.24;74.54
32181;BME280;19172;51.504;3.894;2022-12-11T06:26:28;100890.22;;;10.36;73.70
32181;BME280;19172;51.504;3.894;2022-12-11T06:28:56;100886.47;;;10.02;73.33
32181;BME280;19172;51.504;3.894;2022-12-11T06:31:24;100893.69;;;10.31;73.98
32181;BME280;19172;51.504;3.894;2022-12-11T06:33:52;100897.03;;;9.95;73.02
32181;BME280;19172;51.504;3.894;2022-12-11T06:36:22;100898.09;;;10.26;72.36
32181;BME280;19172;51.504;3.894;2022-12-11T06:38:51;100885.81;;;10.38;73.08
32181;BME280;19172;51.504;3.894;2022-12-11T06:41:19;100895.41;;;10.20;72.10
32181;BME280;19172;51.504;3.894;2022-12-11T06:43:47;100892.66;;;10.06;72.82
32181;BME280;19172;51.504;3.894;2022-12-11T06:46:17;100890.81;;;9.90;72.77
32181;BME280;19172;51.504;3.894;2022-12-11T06:48:47;100894.41;;;10.02;72.45
32181;BME280;19172;51.504;3.894;2022-12-11T06:51:18;100903.84;;;9.63;72.92
32181;BME280;19172;51.504;3.894;2022-12-11T06:53:53;100897.03;;;9.95;73.69
32181;BME280;19172;51.504;3.894;2022-12-11T06:56:23;100893.50;;;9.94;73.49
32181;BME280;19172;51.504;3.894;2022-12-11T06:58:51;100899.56;;;9.78;73.42
32181;BME280;19172;51.504;3.894;2022-12-11T07:01:24;100889.06;;;9.90;73.81
32181;BME280;19172;51.504;3.894;2022-12-11T07:03:54;100899.63;;;9.89;74.02
32181;BME280;19172;51.504;3.894;2022-12-11T07:06:23;100901.28;;;9.72;73.24
32181;BME280;19172;51.504;3.894;2022-12-11T07:08:51;100904.75;;;9.65;73.59
32181;BME280;19172;51.504;3.894;2022-12-11T07:11:20;100915.31;;;9.68;73.38
32181;BME280;19172;51.504;3.894;2022-12-11T07:13:48;100909.19;;;9.73;73.46
32181;BME280;19172;51.504;3.894;2022-12-11T07:16:17;100912.81;;;9.84;74.81
32181;BME280;19172;51.504;3.894;2022-12-11T07:18:48;100907.59;;;9.96;74.34
32181;BME280;19172;51.504;3.894;2022-12-11T07:21:18;100907.44;;;9.77;72.91
32181;BME280;19172;51.504;3.894;2022-12-11T07:23:47;100904.78;;;9.74;73.72
32181;BME280;19172;51.504;3.894;2022-12-11T07:26:18;100908.38;;;9.80;73.30
32181;BME280;19172;51.504;3.894;2022-12-11T07:28:47;100905.69;;;9.74;72.55
32181;BME280;19172;51.504;3.894;2022-12-11T07:31:18;100902.22;;;9.83;73.59
32181;BME280;19172;51.504;3.894;2022-12-11T07:33:46;100901.22;;;9.63;73.20
32181;BME280;19172;51.504;3.894;2022-12-11T07:36:14;100912.63;;;9.62;73.34
32181;BME280;19172;51.504;3.894;2022-12-11T07:38:42;100909.25;;;9.76;73.37
32181;BME280;19172;51.504;3.894;2022-12-11T07:41:12;100912.53;;;9.46;73.88
32181;BME280;19172;51.504;3.894;2022-12-11T07:43:42;100918.81;;;9.65;73.33
32181;BME280;19172;51.504;3.894;2022-12-11T07:46:15;100916.63;;;9.13;73.43
32181;BME280;19172;51.504;3.894;2022-12-11T07:48:46;100917.97;;;9.66;74.58
32181;BME280;19172;51.504;3.894;2022-12-11T07:51:22;100912.69;;;9.71;74.00
32181;BME280;19172;51.504;3.894;2022-12-11T07:53:58;100919.47;;;9.35;73.80
32181;BME280;19172;51.504;3.894;2022-12-11T07:56:27;100915.31;;;9.65;74.35
32181;BME280;19172;51.504;3.894;2022-12-11T07:58:59;100912.66;;;9.63;73.69
32181;BME280;19172;51.504;3.894;2022-12-11T08:01:29;100912.59;;;9.55;73.69
32181;BME280;19172;51.504;3.894;2022-12-11T08:03:57;100915.38;;;9.75;73.70
32181;BME280;19172;51.504;3.894;2022-12-11T08:06:28;100918.06;;;9.83;73.26
32181;BME280;19172;51.504;3.894;2022-12-11T08:08:57;100913.72;;;9.91;73.77
32181;BME280;19172;51.504;3.894;2022-12-11T08:11:27;100917.94;;;9.65;73.34
32181;BME280;19172;51.504;3.894;2022-12-11T08:13:55;100917.06;;;9.63;73.14
32181;BME280;19172;51.504;3.894;2022-12-11T08:16:23;100916.97;;;9.55;72.93
32181;BME280;19172;51.504;3.894;2022-12-11T08:18:52;100918.63;;;9.39;72.80
32181;BME280;19172;51.504;3.894;2022-12-11T08:21:23;100917.03;;;9.60;73.43
32181;BME280;19172;51.504;3.894;2022-12-11T08:23:52;100920.72;;;9.84;73.92
32181;BME280;19172;51.504;3.894;2022-12-11T08:26:25;100920.56;;;9.60;72.98
32181;BME280;19172;51.504;3.894;2022-12-11T08:28:54;100918.13;;;9.89;73.49
32181;BME280;19172;51.504;3.894;2022-12-11T08:31:22;100924.19;;;9.76;73.39
32181;BME280;19172;51.504;3.894;2022-12-11T08:33:51;100927.59;;;9.61;72.32
32181;BME280;19172;51.504;3.894;2022-12-11T08:36:21;100921.50;;;9.71;72.06
32181;BME280;19172;51.504;3.894;2022-12-11T08:38:50;100926.69;;;9.57;72.41
32181;BME280;19172;51.504;3.894;2022-12-11T08:41:21;100925.91;;;9.74;72.57
32181;BME280;19172;51.504;3.894;2022-12-11T08:43:50;100924.09;;;9.65;72.96
32181;BME280;19172;51.504;3.894;2022-12-11T08:46:29;100931.97;;;9.57;73.18
32181;BME280;19172;51.504;3.894;2022-12-11T08:48:58;100923.09;;;9.46;72.76
32181;BME280;19172;51.504;3.894;2022-12-11T08:51:28;100924.00;;;9.54;73.25
32181;BME280;19172;51.504;3.894;2022-12-11T08:53:57;100916.00;;;9.38;73.15
32181;BME280;19172;51.504;3.894;2022-12-11T08:56:27;100922.94;;;9.28;73.20
32181;BME280;19172;51.504;3.894;2022-12-11T08:58:57;100922.16;;;9.40;74.00
32181;BME280;19172;51.504;3.894;2022-12-11T09:01:26;100925.94;;;9.77;73.95
32181;BME280;19172;51.504;3.894;2022-12-11T09:03:55;100931.16;;;9.66;73.83
32181;BME280;19172;51.504;3.894;2022-12-11T09:06:25;100922.53;;;9.91;72.81
32181;BME280;19172;51.504;3.894;2022-12-11T09:08:55;100916.56;;;9.07;73.23
32181;BME280;19172;51.504;3.894;2022-12-11T09:11:29;100914.06;;;9.19;74.05
32181;BME280;19172;51.504;3.894;2022-12-11T09:13:57;100913.41;;;9.48;73.95
32181;BME280;19172;51.504;3.894;2022-12-11T09:16:32;100909.91;;;9.49;73.40
32181;BME280;19172;51.504;3.894;2022-12-11T09:19:00;100917.84;;;9.52;73.13
32181;BME280;19172;51.504;3.894;2022-12-11T09:21:29;100911.41;;;9.20;72.84
32181;BME280;19172;51.504;3.894;2022-12-11T09:23:59;100915.88;;;9.29;73.53
32181;BME280;19172;51.504;3.894;2022-12-11T09:26:28;100917.00;;;9.53;73.15
32181;BME280;19172;51.504;3.894;2022-12-11T09:28:57;100921.44;;;9.59;72.54
32181;BME280;19172;51.504;3.894;2022-12-11T09:31:28;100918.84;;;9.67;72.54
32181;BME280;19172;51.504;3.894;2022-12-11T09:33:58;100919.84;;;9.84;72.08
32181;BME280;19172;51.504;3.894;2022-12-11T09:36:27;100912.84;;;9.92;71.52
32181;BME280;19172;51.504;3.894;2022-12-11T09:39:02;100914.72;;;10.08;71.92
32181;BME280;19172;51.504;3.894;2022-12-11T09:41:45;100914.56;;;9.85;71.70
32181;BME280;19172;51.504;3.894;2022-12-11T09:44:28;100921.72;;;10.06;70.51
32181;BME280;19172;51.504;3.894;2022-12-11T09:46:58;100922.50;;;9.87;69.94
32181;BME280;19172;51.504;3.894;2022-12-11T09:52:13;100915.56;;;10.08;70.13
32181;BME280;19172;51.504;3.894;2022-12-11T09:54:51;100913.88;;;10.15;69.86
32181;BME280;19172;51.504;3.894;2022-12-11T09:57:47;100917.13;;;9.75;70.04
32181;BME280;19172;51.504;3.894;2022-12-11T10:00:36;100914.47;;;9.72;70.38
32181;BME280;19172;51.504;3.894;2022-12-11T10:08:43;100916.31;;;9.86;70.69
32181;BME280;19172;51.504;3.894;2022-12-11T10:19:36;100907.25;;;9.46;70.15
32181;BME280;19172;51.504;3.894;2022-12-11T10:22:16;100905.34;;;9.32;69.90
32181;BME280;19172;51.504;3.894;2022-12-11T10:25:06;100894.63;;;9.11;70.88
32181;BME280;19172;51.504;3.894;2022-12-11T10:27:39;100899.78;;;9.00;70.75
32181;BME280;19172;51.504;3.894;2022-12-11T10:30:25;100896.44;;;9.19;71.33
32181;BME280;19172;51.504;3.894;2022-12-11T10:35:54;100906.50;;;9.63;70.86
32181;BME280;19172;51.504;3.894;2022-12-11T10:41:00;100903.84;;;9.63;71.37
32181;BME280;19172;51.504;3.894;2022-12-11T10:43:35;100908.81;;;9.23;70.33
32181;BME280;19172;51.504;3.894;2022-12-11T10:46:05;100913.22;;;9.26;70.32
32181;BME280;19172;51.504;3.894;2022-12-11T10:48:34;100906.69;;;8.86;69.90
32181;BME280;19172;51.504;3.894;2022-12-11T10:51:04;100900.84;;;9.17;70.60
32181;BME280;19172;51.504;3.894;2022-12-11T10:53:34;100908.94;;;9.38;70.18
32181;BME280;19172;51.504;3.894;2022-12-11T10:56:02;100904.38;;;9.22;70.55
32181;BME280;19172;51.504;3.894;2022-12-11T10:58:32;100897.88;;;8.84;70.48
32181;BME280;19172;51.504;3.894;2022-12-11T11:01:16;100890.03;;;8.91;70.91
32181;BME280;19172;51.504;3.894;2022-12-11T11:04:05;100891.91;;;9.03;70.57
32181;BME280;19172;51.504;3.894;2022-12-11T11:06:33;100888.53;;;9.18;70.96
32181;BME280;19172;51.504;3.894;2022-12-11T11:09:02;100883.09;;;9.01;70.47
32181;BME280;19172;51.504;3.894;2022-12-11T11:11:34;100887.25;;;8.78;70.32
32181;BME280;19172;51.504;3.894;2022-12-11T11:14:15;100882.28;;;9.05;70.58
32181;BME280;19172;51.504;3.894;2022-12-11T11:16:46;100875.09;;;8.89;70.54
32181;BME280;19172;51.504;3.894;2022-12-11T11:19:45;100883.09;;;9.01;70.96
32181;BME280;19172;51.504;3.894;2022-12-11T11:22:17;100883.88;;;8.89;70.64
32181;BME280;19172;51.504;3.894;2022-12-11T11:24:56;100888.28;;;8.90;71.23
32181;BME280;19172;51.504;3.894;2022-12-11T11:27:33;100885.81;;;9.06;70.99
32181;BME280;19172;51.504;3.894;2022-12-11T11:30:06;100890.28;;;9.16;71.02
32181;BME280;19172;51.504;3.894;2022-12-11T11:32:43;100883.34;;;9.30;70.00
32181;BME280;19172;51.504;3.894;2022-12-11T11:37:44;100881.47;;;9.14;69.14
32181;BME280;19172;51.504;3.894;2022-12-11T11:41:22;100882.41;;;9.20;69.56
32181;BME280;19172;51.504;3.894;2022-12-11T11:43:46;100880.56;;;9.13;69.32
32181;BME280;19172;51.504;3.894;2022-12-11T11:46:39;100884.06;;;9.09;69.05
32181;BME280;19172;51.504;3.894;2022-12-11T11:49:15;100881.72;;;9.44;69.43
32181;BME280;19172;51.504;3.894;2022-12-11T11:51:51;100884.06;;;9.06;68.54
32181;BME280;19172;51.504;3.894;2022-12-11T11:54:51;100870.91;;;9.14;68.44
32181;BME280;19172;51.504;3.894;2022-12-11T12:00:26;100870.25;;;9.40;68.53
32181;BME280;19172;51.504;3.894;2022-12-11T12:03:08;100862.53;;;9.69;68.23
32181;BME280;19172;51.504;3.894;2022-12-11T12:05:56;100857.34;;;9.87;68.63
32181;BME280;19172;51.504;3.894;2022-12-11T12:14:34;100851.13;;;9.75;66.81
32181;BME280;19172;51.504;3.894;2022-12-11T12:37:57;100846.06;;;10.16;66.83
32181;BME280;19172;51.504;3.894;2022-12-11T12:40:55;100846.16;;;10.37;65.95
32181;BME280;19172;51.504;3.894;2022-12-11T12:43:34;100842.47;;;10.06;65.53
32181;BME280;19172;51.504;3.894;2022-12-11T12:48:44;100844.38;;;10.34;65.17
32181;BME280;19172;51.504;3.894;2022-12-11T12:51:14;100841.63;;;10.10;64.86
32181;BME280;19172;51.504;3.894;2022-12-11T12:53:51;100839.00;;;10.13;65.70
32181;BME280;19172;51.504;3.894;2022-12-11T12:56:21;100839.75;;;9.89;64.60
32181;BME280;19172;51.504;3.894;2022-12-11T12:58:51;100839.75;;;9.89;65.14
32181;BME280;19172;51.504;3.894;2022-12-11T13:01:21;100841.38;;;9.65;65.26
32181;BME280;19172;51.504;3.894;2022-12-11T13:04:05;100839.59;;;9.59;65.96
32181;BME280;19172;51.504;3.894;2022-12-11T13:06:41;100842.19;;;9.50;66.04
32181;BME280;19172;51.504;3.894;2022-12-11T13:09:18;100845.47;;;9.23;65.83
32181;BME280;19172;51.504;3.894;2022-12-11T13:11:48;100846.41;;;9.25;66.59
32181;BME280;19172;51.504;3.894;2022-12-11T13:16:50;100843.06;;;9.50;67.09
32181;BME280;19172;51.504;3.894;2022-12-11T13:21:58;100841.34;;;9.58;65.92
32181;BME280;19172;51.504;3.894;2022-12-11T13:24:31;100847.25;;;9.21;65.64
32181;BME280;19172;51.504;3.894;2022-12-11T13:27:21;100850.00;;;9.35;65.71
32181;BME280;19172;51.504;3.894;2022-12-11T13:29:49;100852.81;;;9.64;65.21
32181;BME280;19172;51.504;3.894;2022-12-11T13:34:57;100859.88;;;9.68;64.35
32181;BME280;19172;51.504;3.894;2022-12-11T13:37:33;100846.63;;;9.62;64.54
32181;BME280;19172;51.504;3.894;2022-12-11T13:40:16;100851.97;;;9.69;64.47
32181;BME280;19172;51.504;3.894;2022-12-11T13:42:49;100844.06;;;9.69;64.14
32181;BME280;19172;51.504;3.894;2022-12-11T13:45:25;100843.13;;;9.63;63.73
32181;BME280;19172;51.504;3.894;2022-12-11T13:47:57;100843.09;;;9.61;63.51
32181;BME280;19172;51.504;3.894;2022-12-11T13:50:30;100835.63;;;8.96;62.89
32181;BME280;19172;51.504;3.894;2022-12-11T13:53:01;100836.88;;;9.48;64.36
32181;BME280;19172;51.504;3.894;2022-12-11T13:55:33;100842.16;;;9.47;63.70
32181;BME280;19172;51.504;3.894;2022-12-11T13:58:01;100848.25;;;9.41;64.25
32181;BME280;19172;51.504;3.894;2022-12-11T14:00:30;100837.75;;;9.47;64.20
32181;BME280;19172;51.504;3.894;2022-12-11T14:03:04;100836.00;;;9.51;65.06
32181;BME280;19172;51.504;3.894;2022-12-11T14:05:36;100845.84;;;9.75;64.50
32181;BME280;19172;51.504;3.894;2022-12-11T14:08:07;100845.00;;;9.86;65.10
32181;BME280;19172;51.504;3.894;2022-12-11T14:10:38;100838.91;;;9.95;64.88
32181;BME280;19172;51.504;3.894;2022-12-11T14:13:24;100844.25;;;10.07;64.32
32181;BME280;19172;51.504;3.894;2022-12-11T14:15:53;100841.34;;;9.57;64.85
32181;BME280;19172;51.504;3.894;2022-12-11T14:18:29;100844.84;;;9.57;65.05
32181;BME280;19172;51.504;3.894;2022-12-11T14:21:02;100831.75;;;9.70;65.18
32181;BME280;19172;51.504;3.894;2022-12-11T14:23:35;100836.13;;;9.66;65.75
32181;BME280;19172;51.504;3.894;2022-12-11T14:26:28;100838.78;;;9.77;65.59
32181;BME280;19172;51.504;3.894;2022-12-11T14:28:57;100837.69;;;9.40;65.10
32181;BME280;19172;51.504;3.894;2022-12-11T14:31:29;100844.81;;;9.50;65.49
32181;BME280;19172;51.504;3.894;2022-12-11T14:34:20;100840.47;;;9.56;65.68
32181;BME280;19172;51.504;3.894;2022-12-11T14:36:49;100844.00;;;9.65;66.43
32181;BME280;19172;51.504;3.894;2022-12-11T14:39:28;100837.00;;;9.71;66.20
32181;BME280;19172;51.504;3.894;2022-12-11T14:42:07;100842.91;;;9.31;65.87